Time;durP1;ratioP1;P1;durP2;ratioP2;P2;SDS_P1;SDS_P2;PMS_P1;PMS_P2;Temp;Humidity;BMP_temperature;BMP_pressure;BME280_temperature;BME280_humidity;BME280_pressure;Samples;Min_cycle;Max_cycle;Signal;HPM_P1;HPM_P2
2021/06/22 00:01:38;;;;;;;7.67;6.43;;;22.10;1.00;;;;;;5115073;28;20464;-68
2021/06/22 00:04:05;;;;;;;9.20;6.03;;;22.10;1.00;;;;;;5115167;28;20448;-68
2021/06/22 00:06:31;;;;;;;7.73;6.93;;;22.00;1.00;;;;;;5115496;28;20456;-68
2021/06/22 00:08:58;;;;;;;9.57;6.70;;;21.90;1.00;;;;;;5114667;28;20469;-68
2021/06/22 00:11:26;;;;;;;7.30;6.60;;;21.90;1.00;;;;;;5114573;28;20475;-68
2021/06/22 00:13:53;;;;;;;13.70;7.60;;;21.90;3.20;;;;;;5114853;28;20480;-68
2021/06/22 00:16:20;;;;;;;10.87;7.87;;;21.90;10.50;;;;;;5114200;28;20456;-68
2021/06/22 00:18:46;;;;;;;10.87;7.70;;;21.80;13.20;;;;;;5114618;28;20468;-68
2021/06/22 00:21:13;;;;;;;7.87;6.73;;;21.80;20.80;;;;;;5114968;28;20449;-68
2021/06/22 00:23:40;;;;;;;9.10;7.97;;;21.70;30.00;;;;;;5114407;28;20452;-68
2021/06/22 00:26:07;;;;;;;9.67;8.67;;;21.70;37.20;;;;;;5115369;28;20452;-68
2021/06/22 00:28:35;;;;;;;8.53;7.80;;;21.60;44.40;;;;;;5118162;28;20491;-68
2021/06/22 00:31:01;;;;;;;11.97;8.70;;;21.60;52.00;;;;;;5118375;28;20456;-68
2021/06/22 00:33:28;;;;;;;9.90;7.57;;;21.60;57.20;;;;;;5117662;28;20964;-68
2021/06/22 00:35:55;;;;;;;10.23;8.00;;;21.60;59.60;;;;;;5118292;28;20474;-68
2021/06/22 00:38:21;;;;;;;8.87;8.07;;;21.70;56.40;;;;;;5118027;28;20463;-68
2021/06/22 00:40:52;;;;;;;9.60;8.20;;;21.70;58.20;;;;;;5118168;28;20455;-68
2021/06/22 00:43:18;;;;;;;8.50;7.70;;;21.70;58.30;;;;;;5118323;28;20463;-68
2021/06/22 00:45:46;;;;;;;9.63;8.70;;;21.80;58.10;;;;;;5118155;28;20526;-68
2021/06/22 00:48:13;;;;;;;12.43;8.90;;;21.80;58.90;;;;;;5117791;28;20476;-68
2021/06/22 00:50:40;;;;;;;9.67;8.30;;;21.90;57.30;;;;;;5117675;28;20928;-68
2021/06/22 00:53:08;;;;;;;9.90;8.90;;;21.90;53.00;;;;;;5117570;28;20452;-68
2021/06/22 00:55:35;;;;;;;10.03;8.93;;;21.90;51.10;;;;;;5117796;28;20807;-68
2021/06/22 00:58:03;;;;;;;9.93;8.93;;;22.00;46.00;;;;;;5117732;28;20467;-68
2021/06/22 01:00:30;;;;;;;8.70;7.90;;;22.00;43.60;;;;;;5117285;28;20466;-68
2021/06/22 01:02:59;;;;;;;9.27;8.30;;;22.00;45.10;;;;;;5117726;28;20464;-68
2021/06/22 01:05:26;;;;;;;9.47;8.10;;;22.10;43.70;;;;;;5117592;28;20462;-68
2021/06/22 01:07:55;;;;;;;15.37;8.73;;;22.10;39.40;;;;;;5117537;28;20488;-67
2021/06/22 01:10:23;;;;;;;13.60;9.33;;;22.10;38.50;;;;;;5117345;28;20453;-68
2021/06/22 01:12:50;;;;;;;12.90;8.80;;;22.10;38.00;;;;;;5117406;28;20484;-68
2021/06/22 01:15:19;;;;;;;10.37;9.10;;;22.20;28.60;;;;;;5117676;28;20484;-68
2021/06/22 01:17:46;;;;;;;9.30;8.30;;;22.10;28.30;;;;;;5117244;28;20456;-68
2021/06/22 01:20:15;;;;;;;17.10;8.87;;;22.00;33.70;;;;;;5116937;28;20449;-68
2021/06/22 01:22:46;;;;;;;10.57;8.47;;;21.90;42.50;;;;;;5117066;28;20489;-68
2021/06/22 01:25:13;;;;;;;10.00;8.80;;;21.90;48.20;;;;;;5117114;28;20460;-67
2021/06/22 01:27:41;;;;;;;11.57;8.40;;;21.90;45.60;;;;;;5117122;28;20452;-68
2021/06/22 01:30:09;;;;;;;10.80;9.27;;;21.90;42.20;;;;;;5117151;28;20457;-68
2021/06/22 01:32:37;;;;;;;13.30;9.57;;;21.90;36.90;;;;;;5116826;28;20471;-68
2021/06/22 01:35:04;;;;;;;10.17;8.83;;;21.80;41.50;;;;;;5116725;28;20472;-68
2021/06/22 01:37:31;;;;;;;11.10;8.97;;;21.80;45.40;;;;;;5116201;28;20463;-68
2021/06/22 01:40:06;;;;;;;10.67;8.47;;;21.70;49.10;;;;;;5116645;28;20939;-68
2021/06/22 01:42:33;;;;;;;11.00;8.63;;;21.70;52.20;;;;;;5116520;28;20445;-68
2021/06/22 01:45:02;;;;;;;9.30;8.40;;;21.60;54.20;;;;;;5116604;28;20455;-67
2021/06/22 01:47:29;;;;;;;10.50;8.60;;;21.50;62.70;;;;;;5116273;28;20491;-68
2021/06/22 01:50:02;;;;;;;10.13;8.43;;;21.50;67.40;;;;;;5116755;28;20456;-68
2021/06/22 01:52:29;;;;;;;10.33;9.33;;;21.50;63.80;;;;;;5116877;28;20451;-68
2021/06/22 01:54:58;;;;;;;11.83;9.40;;;21.50;59.20;;;;;;5116466;28;20491;-68
2021/06/22 01:57:26;;;;;;;9.17;8.37;;;21.60;58.00;;;;;;5116180;28;20939;-67
2021/06/22 01:59:53;;;;;;;10.93;9.93;;;21.50;56.30;;;;;;5116497;28;20900;-68
2021/06/22 02:02:20;;;;;;;9.83;8.93;;;21.50;55.30;;;;;;5116563;28;20463;-68
2021/06/22 02:04:47;;;;;;;11.20;10.00;;;21.50;57.40;;;;;;5116312;28;20536;-68
2021/06/22 02:07:15;;;;;;;12.47;9.13;;;21.50;54.70;;;;;;5116423;28;20844;-68
2021/06/22 02:09:42;;;;;;;11.20;8.17;;;21.50;53.70;;;;;;5116246;28;20846;-68
2021/06/22 02:12:09;;;;;;;11.00;9.57;;;21.50;53.40;;;;;;5116221;28;20456;-68
2021/06/22 02:14:37;;;;;;;10.83;9.50;;;21.50;46.20;;;;;;5116043;28;20495;-68
2021/06/22 02:17:04;;;;;;;17.10;9.40;;;21.50;38.00;;;;;;5115808;28;20456;-67
2021/06/22 02:19:31;;;;;;;12.80;11.50;;;21.40;39.40;;;;;;5115824;28;20456;-67
2021/06/22 02:21:58;;;;;;;11.73;10.53;;;21.40;36.00;;;;;;5115980;27;20467;-67
2021/06/22 02:24:25;;;;;;;14.30;11.37;;;21.30;40.30;;;;;;5116029;28;20526;-67
2021/06/22 02:26:51;;;;;;;10.67;9.77;;;21.30;44.80;;;;;;5115861;28;20460;-67
2021/06/22 02:29:18;;;;;;;11.87;9.80;;;21.20;45.60;;;;;;5115076;28;20464;-67
2021/06/22 02:31:46;;;;;;;11.03;9.93;;;21.20;46.90;;;;;;5115926;28;20452;-67
2021/06/22 02:34:13;;;;;;;12.27;11.03;;;21.20;41.50;;;;;;5115886;28;20452;-67
2021/06/22 02:36:42;;;;;;;11.67;10.47;;;21.20;38.90;;;;;;5115515;28;20921;-68
2021/06/22 02:39:08;;;;;;;11.07;9.93;;;21.20;38.30;;;;;;5115882;28;20456;-68
2021/06/22 02:41:35;;;;;;;13.27;10.17;;;21.20;36.60;;;;;;5115820;28;20457;-68
2021/06/22 02:44:04;;;;;;;13.93;9.50;;;21.20;35.60;;;;;;5115767;28;20768;-68
2021/06/22 02:46:33;;;;;;;9.77;8.80;;;21.20;37.50;;;;;;5115209;28;20493;-68
2021/06/22 02:49:01;;;;;;;9.93;8.70;;;21.20;39.70;;;;;;5115542;28;20510;-68
2021/06/22 02:51:28;;;;;;;13.63;9.40;;;21.20;35.60;;;;;;5115581;28;20448;-68
2021/06/22 02:53:56;;;;;;;11.43;9.87;;;21.20;33.90;;;;;;5115210;28;20460;-68
2021/06/22 02:56:23;;;;;;;12.40;10.80;;;21.30;26.90;;;;;;5115455;28;20480;-68
2021/06/22 02:58:50;;;;;;;11.33;10.10;;;21.20;21.80;;;;;;5115427;28;20807;-68
2021/06/22 03:01:16;;;;;;;12.27;10.20;;;21.30;19.50;;;;;;5115248;28;20457;-67
2021/06/22 03:03:43;;;;;;;9.67;8.87;;;21.20;22.00;;;;;;5115321;28;20471;-67
2021/06/22 03:06:11;;;;;;;11.57;10.50;;;21.20;22.90;;;;;;5115308;28;20464;-67
2021/06/22 03:08:38;;;;;;;11.20;10.20;;;21.20;22.50;;;;;;5115406;28;20471;-67
2021/06/22 03:11:04;;;;;;;13.00;11.30;;;21.20;17.90;;;;;;5114863;27;20877;-67
2021/06/22 03:13:31;;;;;;;11.87;10.60;;;21.20;19.90;;;;;;5115331;28;20463;-67
2021/06/22 03:15:58;;;;;;;10.90;9.90;;;21.20;18.10;;;;;;5114786;28;20487;-67
2021/06/22 03:18:24;;;;;;;14.60;10.97;;;21.20;18.50;;;;;;5115232;28;20825;-68
2021/06/22 03:20:51;;;;;;;13.00;11.00;;;21.20;18.10;;;;;;5114982;28;20456;-67
2021/06/22 03:23:19;;;;;;;12.77;10.93;;;21.20;18.40;;;;;;5114962;28;20755;-67
2021/06/22 03:25:46;;;;;;;12.57;11.20;;;21.20;14.30;;;;;;5115813;28;20448;-67
2021/06/22 03:28:13;;;;;;;11.90;10.70;;;21.10;15.80;;;;;;5114974;28;20463;-67
2021/06/22 03:30:42;;;;;;;12.30;11.10;;;21.10;15.60;;;;;;5114765;28;20889;-67
2021/06/22 03:33:09;;;;;;;13.30;11.10;;;21.10;16.10;;;;;;5114894;28;20917;-67
2021/06/22 03:35:37;;;;;;;12.20;11.00;;;21.00;16.10;;;;;;5114966;28;20828;-67
2021/06/22 03:38:05;;;;;;;12.37;11.13;;;21.00;15.00;;;;;;5114776;28;20460;-67
2021/06/22 03:40:33;;;;;;;13.40;12.03;;;21.00;15.90;;;;;;5114901;28;20811;-67
2021/06/22 03:42:59;;;;;;;14.30;11.60;;;21.00;18.30;;;;;;5114999;28;20757;-68
2021/06/22 03:45:27;;;;;;;13.20;11.80;;;21.00;13.70;;;;;;5114627;28;20468;-67
2021/06/22 03:47:55;;;;;;;13.07;11.80;;;21.00;12.20;;;;;;5114616;28;20541;-67
2021/06/22 03:50:21;;;;;;;13.57;12.17;;;21.00;11.50;;;;;;5114726;28;20869;-67
2021/06/22 03:52:48;;;;;;;13.87;12.47;;;21.00;9.30;;;;;;5115257;28;20457;-67
2021/06/22 03:55:27;;;;;;;13.83;12.30;;;20.90;8.20;;;;;;5114755;28;20481;-67
2021/06/22 03:57:57;;;;;;;18.53;12.60;;;20.90;11.20;;;;;;5114555;28;20437;-67
2021/06/22 04:00:25;;;;;;;15.03;11.23;;;20.80;16.00;;;;;;5114704;28;20452;-67
2021/06/22 04:02:52;;;;;;;12.90;11.57;;;20.80;18.90;;;;;;5118877;28;20822;-67
2021/06/22 04:05:19;;;;;;;16.20;11.70;;;20.80;10.40;;;;;;5118698;28;20448;-68
2021/06/22 04:07:46;;;;;;;13.00;11.60;;;20.80;11.20;;;;;;5118677;27;20467;-67
2021/06/22 04:10:13;;;;;;;14.90;11.57;;;20.80;11.10;;;;;;5118837;27;20463;-67
2021/06/22 04:12:41;;;;;;;16.60;11.60;;;20.70;12.70;;;;;;5118638;28;20924;-67
2021/06/22 04:15:10;;;;;;;13.93;10.90;;;20.70;13.20;;;;;;5118591;28;20490;-67
2021/06/22 04:17:37;;;;;;;13.50;11.27;;;20.70;11.20;;;;;;5118497;28;20456;-67
2021/06/22 04:20:05;;;;;;;14.07;11.90;;;20.70;14.00;;;;;;5118587;28;20789;-67
2021/06/22 04:22:31;;;;;;;16.23;12.30;;;20.80;10.30;;;;;;5118347;28;20452;-67
2021/06/22 04:24:58;;;;;;;14.80;12.17;;;20.80;6.40;;;;;;5118138;28;20463;-67
2021/06/22 04:27:25;;;;;;;15.67;12.03;;;20.80;1.00;;;;;;5118417;28;20463;-67
2021/06/22 04:29:52;;;;;;;17.73;12.80;;;20.80;1.00;;;;;;5118286;28;20452;-67
2021/06/22 04:32:20;;;;;;;18.90;13.27;;;20.90;1.00;;;;;;5118377;28;20896;-67
2021/06/22 04:34:47;;;;;;;17.97;14.40;;;20.90;1.00;;;;;;5117819;28;20461;-67
2021/06/22 04:37:13;;;;;;;18.20;12.67;;;20.80;1.00;;;;;;5118207;27;20969;-67
2021/06/22 04:39:40;;;;;;;22.97;13.93;;;20.70;2.10;;;;;;5118080;28;20521;-67
2021/06/22 04:42:07;;;;;;;16.93;13.00;;;20.70;6.30;;;;;;5118028;28;20463;-67
2021/06/22 04:44:34;;;;;;;19.20;13.70;;;20.70;6.70;;;;;;5118256;28;20489;-68
2021/06/22 04:47:01;;;;;;;18.17;13.53;;;20.70;8.30;;;;;;5117811;28;20476;-67
2021/06/22 04:49:29;;;;;;;23.70;16.03;;;20.60;11.90;;;;;;5117881;28;20452;-67
2021/06/22 04:51:55;;;;;;;27.17;17.33;;;20.60;3.20;;;;;;5118065;28;20456;-67
2021/06/22 04:54:23;;;;;;;20.70;17.17;;;20.50;10.70;;;;;;5118130;28;20909;-68
2021/06/22 04:56:51;;;;;;;23.97;17.83;;;20.40;22.90;;;;;;5117927;27;20472;-68
2021/06/22 04:59:18;;;;;;;21.87;17.67;;;20.30;31.90;;;;;;5119908;28;20456;-67
2021/06/22 05:01:44;;;;;;;26.57;17.53;;;20.20;43.30;;;;;;5117886;28;20460;-69
2021/06/22 05:04:12;;;;;;;25.33;18.63;;;20.20;39.20;;;;;;5117754;28;20452;-68
2021/06/22 05:06:41;;;;;;;30.90;17.27;;;20.20;38.30;;;;;;5117598;28;20865;-68
2021/06/22 05:09:08;;;;;;;35.40;18.90;;;20.10;46.50;;;;;;5117835;27;20464;-68
2021/06/22 05:11:34;;;;;;;27.47;19.20;;;20.00;55.50;;;;;;5117239;28;20464;-68
2021/06/22 05:14:01;;;;;;;30.50;18.80;;;19.90;55.00;;;;;;5116238;28;20486;-66
2021/06/22 05:16:28;;;;;;;27.20;17.63;;;19.90;57.70;;;;;;5117339;28;20975;-67
2021/06/22 05:18:55;;;;;;;32.30;19.17;;;19.70;69.90;;;;;;5117038;28;20453;-67
2021/06/22 05:21:22;;;;;;;26.37;19.57;;;19.60;75.80;;;;;;5117118;28;20452;-67
2021/06/22 05:23:50;;;;;;;29.70;19.90;;;19.50;91.60;;;;;;5117560;28;20464;-66
2021/06/22 05:26:17;;;;;;;26.50;17.97;;;19.40;99.00;;;;;;5117202;28;20770;-67
2021/06/22 05:28:43;;;;;;;24.10;16.47;;;19.30;99.90;;;;;;5117406;28;20452;-67
2021/06/22 05:31:10;;;;;;;28.13;15.23;;;19.30;99.90;;;;;;5117290;28;20826;-67
2021/06/22 05:33:37;;;;;;;26.47;15.50;;;19.20;99.90;;;;;;5117170;28;20901;-68
2021/06/22 05:36:04;;;;;;;20.53;13.93;;;19.10;99.90;;;;;;5116993;28;20476;-68
2021/06/22 05:38:31;;;;;;;27.60;14.80;;;19.00;99.90;;;;;;5117227;28;20471;-68
2021/06/22 05:40:59;;;;;;;20.63;14.33;;;18.90;99.90;;;;;;5117009;28;20448;-68
2021/06/22 05:43:26;;;;;;;23.13;14.80;;;18.80;99.90;;;;;;5117024;27;20456;-68
2021/06/22 05:45:52;;;;;;;17.43;13.60;;;18.70;99.90;;;;;;5117123;28;20452;-68
2021/06/22 05:48:19;;;;;;;18.73;12.40;;;18.70;99.90;;;;;;5116300;28;20480;-68
2021/06/22 05:50:46;;;;;;;20.37;13.00;;;18.60;99.90;;;;;;5116722;28;20464;-68
2021/06/22 05:53:12;;;;;;;16.93;12.07;;;18.60;99.90;;;;;;5116645;28;20931;-68
2021/06/22 05:55:39;;;;;;;16.60;11.13;;;18.60;99.90;;;;;;5117229;28;20495;-68
2021/06/22 05:58:07;;;;;;;18.73;12.17;;;18.50;99.90;;;;;;5116515;28;20916;-68
2021/06/22 06:00:34;;;;;;;16.13;11.20;;;18.60;99.90;;;;;;5116554;28;20471;-68
2021/06/22 06:03:01;;;;;;;14.27;10.70;;;18.60;99.90;;;;;;5116641;28;20762;-68
2021/06/22 06:05:28;;;;;;;17.60;10.63;;;18.60;99.90;;;;;;5116278;28;20774;-68
2021/06/22 06:07:55;;;;;;;15.77;10.87;;;18.60;99.90;;;;;;5116288;28;20468;-68
2021/06/22 06:10:23;;;;;;;16.53;10.73;;;18.60;99.90;;;;;;5116345;28;20464;-68
2021/06/22 06:12:49;;;;;;;14.63;11.07;;;18.60;99.90;;;;;;5116285;28;20472;-69
2021/06/22 06:15:19;;;;;;;13.40;9.60;;;18.60;99.90;;;;;;5116405;28;20459;-67
2021/06/22 06:17:46;;;;;;;10.30;8.50;;;18.60;99.90;;;;;;5115763;28;20475;-67
2021/06/22 06:20:15;;;;;;;10.10;7.50;;;18.80;99.90;;;;;;5116219;28;20871;-67
2021/06/22 06:22:43;;;;;;;10.13;8.30;;;18.80;99.90;;;;;;5115969;28;20492;-67
2021/06/22 06:25:12;;;;;;;11.17;8.67;;;18.90;99.90;;;;;;5115124;28;20452;-67
2021/06/22 06:27:46;;;;;;;9.33;8.30;;;19.00;99.90;;;;;;5115864;28;20467;-67
2021/06/22 06:30:16;;;;;;;10.10;8.03;;;19.10;99.90;;;;;;5116085;28;20490;-67
2021/06/22 06:32:44;;;;;;;9.63;7.90;;;19.10;99.90;;;;;;5115937;28;20479;-67
2021/06/22 06:35:12;;;;;;;10.87;7.90;;;19.20;84.80;;;;;;5115393;28;21026;-67
2021/06/22 06:37:39;;;;;;;10.17;6.80;;;19.10;85.50;;;;;;5115952;28;20449;-67
2021/06/22 06:40:08;;;;;;;6.63;6.00;;;19.10;88.80;;;;;;5115816;28;20459;-67
2021/06/22 06:42:35;;;;;;;6.43;4.70;;;19.10;86.10;;;;;;5115464;28;20452;-67
2021/06/22 06:45:01;;;;;;;6.13;5.30;;;19.20;81.20;;;;;;5115601;28;20452;-67
2021/06/22 06:47:28;;;;;;;9.50;5.77;;;19.20;60.00;;;;;;5115608;28;20487;-67
2021/06/22 06:49:56;;;;;;;6.37;5.10;;;19.30;47.00;;;;;;5115600;28;20452;-66
2021/06/22 06:52:23;;;;;;;5.47;4.70;;;19.40;32.20;;;;;;5115417;28;20793;-67
2021/06/22 06:54:50;;;;;;;4.97;4.20;;;19.40;27.90;;;;;;5115485;28;20456;-67
2021/06/22 06:57:17;;;;;;;8.07;4.73;;;19.40;21.40;;;;;;5115365;28;20480;-67
2021/06/22 06:59:45;;;;;;;4.23;3.43;;;19.40;18.30;;;;;;5114844;28;20452;-67
2021/06/22 07:02:11;;;;;;;5.40;3.70;;;19.40;19.30;;;;;;5115439;28;20448;-67
2021/06/22 07:04:38;;;;;;;5.87;4.80;;;19.50;13.10;;;;;;5115447;28;20803;-68
2021/06/22 07:07:06;;;;;;;6.53;3.87;;;19.50;2.20;;;;;;5115229;28;20920;-68
2021/06/22 07:09:33;;;;;;;7.50;3.77;;;19.40;1.00;;;;;;5115453;28;20460;-67
2021/06/22 07:12:00;;;;;;;4.27;3.80;;;19.40;2.60;;;;;;5115265;28;20482;-67
2021/06/22 07:14:27;;;;;;;5.03;4.53;;;19.50;1.00;;;;;;5115281;28;20471;-67
2021/06/22 07:16:54;;;;;;;5.00;4.07;;;19.60;1.00;;;;;;5115119;28;20835;-68
2021/06/22 07:19:21;;;;;;;5.63;4.07;;;19.60;1.00;;;;;;5116171;28;20467;-69
2021/06/22 07:21:48;;;;;;;4.60;3.80;;;19.70;1.00;;;;;;5115777;28;20560;-68
2021/06/22 07:24:16;;;;;;;6.00;4.53;;;19.70;1.00;;;;;;5116387;28;20548;-67
2021/06/22 07:26:43;;;;;;;3.50;3.20;;;19.80;1.00;;;;;;5115639;28;20535;-68
2021/06/22 07:29:10;;;;;;;3.37;3.03;;;19.90;1.00;;;;;;5116005;28;20935;-66
2021/06/22 07:31:37;;;;;;;3.87;3.40;;;20.00;1.00;;;;;;5117061;28;20463;-67
2021/06/22 07:34:05;;;;;;;4.00;3.60;;;20.10;1.00;;;;;;5121922;28;20453;-67
2021/06/22 07:36:32;;;;;;;4.00;3.27;;;20.10;1.00;;;;;;5124307;28;20487;-67
2021/06/22 07:38:59;;;;;;;4.90;3.20;;;20.10;1.00;;;;;;5125532;28;20453;-68
2021/06/22 07:41:27;;;;;;;4.50;3.30;;;20.20;1.00;;;;;;5122891;28;20485;-68
2021/06/22 07:43:55;;;;;;;4.60;3.70;;;20.20;1.00;;;;;;5120622;28;20854;-67
2021/06/22 07:46:22;;;;;;;7.40;3.90;;;20.30;1.00;;;;;;5120801;28;20480;-68
2021/06/22 07:48:49;;;;;;;5.03;3.93;;;20.30;1.00;;;;;;5120004;28;20436;-66
2021/06/22 07:51:15;;;;;;;5.60;4.33;;;20.40;1.00;;;;;;5120328;28;20467;-66
2021/06/22 07:53:45;;;;;;;6.03;4.57;;;20.40;1.00;;;;;;5120416;28;20452;-67
2021/06/22 07:56:12;;;;;;;4.70;4.30;;;20.50;1.00;;;;;;5119466;28;20770;-66
2021/06/22 07:58:41;;;;;;;4.50;4.10;;;20.50;1.00;;;;;;5119863;28;20796;-68
2021/06/22 08:01:11;;;;;;;4.13;3.83;;;20.50;1.00;;;;;;5120570;28;20463;-66
2021/06/22 08:03:38;;;;;;;3.50;3.20;;;20.40;1.00;;;;;;5120104;28;20456;-66
2021/06/22 08:06:05;;;;;;;8.17;4.77;;;20.30;1.00;;;;;;5119693;28;20459;-67
2021/06/22 08:08:32;;;;;;;3.20;2.90;;;20.30;1.00;;;;;;5120068;28;20796;-67
2021/06/22 08:10:58;;;;;;;5.40;3.43;;;20.20;1.00;;;;;;5119322;28;20456;-66
2021/06/22 08:13:35;;;;;;;3.33;2.90;;;20.20;1.00;;;;;;5118461;28;20460;-66
2021/06/22 08:16:03;;;;;;;4.57;3.30;;;20.10;1.00;;;;;;5118530;28;20463;-67
2021/06/22 08:18:34;;;;;;;6.17;3.80;;;20.00;1.00;;;;;;5119466;28;20452;-67
2021/06/22 08:21:01;;;;;;;3.80;3.50;;;19.90;1.00;;;;;;5121540;28;20487;-67
2021/06/22 08:23:28;;;;;;;6.47;4.10;;;19.90;1.00;;;;;;5119206;28;20509;-67
2021/06/22 08:25:55;;;;;;;4.37;4.00;;;19.80;1.00;;;;;;5119922;28;20513;-67
2021/06/22 08:28:22;;;;;;;4.70;4.00;;;19.80;1.00;;;;;;5118078;28;20551;-67
2021/06/22 08:30:51;;;;;;;7.83;3.57;;;19.70;1.00;;;;;;5118080;28;20463;-67
2021/06/22 08:33:19;;;;;;;7.97;4.40;;;19.60;1.00;;;;;;5118064;28;20737;-66
2021/06/22 08:35:46;;;;;;;6.67;4.90;;;19.50;1.00;;;;;;5118870;28;20460;-67
2021/06/22 08:38:14;;;;;;;5.60;4.90;;;19.40;1.00;;;;;;5118482;28;20781;-67
2021/06/22 08:40:43;;;;;;;6.70;4.97;;;19.40;1.00;;;;;;5118379;28;20448;-67
2021/06/22 08:43:13;;;;;;;5.33;4.37;;;19.30;1.00;;;;;;5118505;28;20462;-67
2021/06/22 08:45:40;;;;;;;6.43;5.07;;;19.30;1.00;;;;;;5118624;28;20546;-67
2021/06/22 08:48:09;;;;;;;4.17;3.83;;;19.20;1.00;;;;;;5117899;28;20768;-67
2021/06/22 08:50:37;;;;;;;6.93;4.53;;;19.10;1.00;;;;;;5118419;28;20460;-67
2021/06/22 08:53:06;;;;;;;5.77;4.30;;;19.10;1.00;;;;;;5118206;28;20460;-67
2021/06/22 08:55:33;;;;;;;5.80;5.30;;;19.00;1.00;;;;;;5119002;28;20854;-67
2021/06/22 08:58:02;;;;;;;4.63;4.23;;;18.90;1.00;;;;;;5118376;28;20523;-66
2021/06/22 09:00:31;;;;;;;7.80;4.57;;;18.80;1.00;;;;;;5118667;28;20463;-68
2021/06/22 09:03:02;;;;;;;5.40;4.60;;;18.80;8.10;;;;;;5117257;28;20939;-67
2021/06/22 09:05:29;;;;;;;6.30;4.30;;;18.80;3.50;;;;;;5118219;28;20501;-67
2021/06/22 09:07:57;;;;;;;8.00;4.70;;;18.80;1.00;;;;;;5118253;28;20452;-67
2021/06/22 09:10:26;;;;;;;7.90;5.30;;;18.80;1.00;;;;;;5117774;28;20456;-65
2021/06/22 09:12:53;;;;;;;4.33;3.30;;;18.80;1.00;;;;;;5117956;28;20463;-67
2021/06/22 09:15:23;;;;;;;4.53;4.10;;;18.90;1.00;;;;;;5117851;28;20452;-65
2021/06/22 09:17:51;;;;;;;4.37;3.97;;;18.90;1.00;;;;;;5118109;28;20514;-67
2021/06/22 09:20:36;;;;;;;4.20;3.80;;;18.90;1.00;;;;;;5118452;28;20485;-67
2021/06/22 09:23:10;;;;;;;3.83;3.33;;;18.90;1.00;;;;;;5117804;28;20451;-67
2021/06/22 09:25:37;;;;;;;4.80;4.10;;;19.00;1.00;;;;;;5117955;28;20452;-67
2021/06/22 09:28:04;;;;;;;4.93;4.43;;;19.00;1.00;;;;;;5118289;28;20453;-68
2021/06/22 09:30:50;;;;;;;4.73;4.33;;;19.10;1.00;;;;;;5119750;28;20488;-67
2021/06/22 09:33:22;;;;;;;4.80;4.00;;;19.10;1.00;;;;;;5119861;28;20768;-67
2021/06/22 09:35:56;;;;;;;4.80;3.80;;;19.10;1.00;;;;;;5119080;28;20448;-68
2021/06/22 09:38:27;;;;;;;6.17;4.30;;;19.20;1.00;;;;;;5117408;28;20472;-68
2021/06/22 09:41:04;;;;;;;5.80;4.23;;;19.30;1.00;;;;;;5117196;28;20445;-68
2021/06/22 09:43:36;;;;;;;5.80;3.67;;;19.40;1.00;;;;;;5117663;28;20444;-67
2021/06/22 09:46:03;;;;;;;5.90;3.80;;;19.40;1.00;;;;;;5117706;28;20437;-67
2021/06/22 09:48:44;;;;;;;3.93;3.53;;;19.40;1.00;;;;;;5117210;28;20456;-67
2021/06/22 09:51:11;;;;;;;5.53;3.30;;;19.40;1.00;;;;;;5117018;28;20437;-67
2021/06/22 09:53:39;;;;;;;5.90;3.90;;;19.40;1.00;;;;;;5117463;28;20452;-67
2021/06/22 09:56:07;;;;;;;5.07;3.67;;;19.40;1.00;;;;;;5117239;28;20769;-67
2021/06/22 09:58:42;;;;;;;6.30;3.60;;;19.40;1.00;;;;;;5116107;28;20571;-67
2021/06/22 10:01:28;;;;;;;4.30;3.90;;;19.50;1.00;;;;;;5117354;28;20452;-67
2021/06/22 10:03:55;;;;;;;3.83;3.50;;;19.50;1.00;;;;;;5115691;28;20780;-67
2021/06/22 10:06:23;;;;;;;4.70;4.17;;;19.50;1.00;;;;;;5117525;28;20479;-67
2021/06/22 10:08:52;;;;;;;7.50;3.60;;;19.60;1.00;;;;;;5117011;28;20452;-66
2021/06/22 10:11:33;;;;;;;4.53;3.67;;;19.60;1.00;;;;;;5117190;28;20463;-67
2021/06/22 10:14:02;;;;;;;5.70;5.07;;;19.70;1.00;;;;;;5116798;28;20444;-67
2021/06/22 10:16:31;;;;;;;4.00;3.60;;;19.70;1.00;;;;;;5116970;28;20823;-67
2021/06/22 10:18:59;;;;;;;5.23;4.50;;;19.80;99.90;;;;;;5117269;28;20448;-66
2021/06/22 10:21:26;;;;;;;3.57;3.27;;;19.90;99.90;;;;;;5117748;28;20470;-66
2021/06/22 10:23:55;;;;;;;4.00;3.53;;;20.00;99.90;;;;;;5117401;28;20452;-67
2021/06/22 10:26:25;;;;;;;3.77;3.37;;;20.00;99.90;;;;;;5117402;28;20481;-66
2021/06/22 10:28:52;;;;;;;5.47;3.93;;;20.00;99.90;;;;;;5117803;28;20456;-67
2021/06/22 10:31:20;;;;;;;6.20;3.80;;;20.10;99.90;;;;;;5116274;28;20467;-67
2021/06/22 10:33:47;;;;;;;6.07;4.30;;;20.10;99.90;;;;;;5116462;28;20909;-67
2021/06/22 10:36:23;;;;;;;7.90;4.20;;;20.20;99.90;;;;;;5116394;28;20452;-66
2021/06/22 10:38:51;;;;;;;4.40;4.00;;;20.20;97.10;;;;;;5116960;28;20468;-67
2021/06/22 10:41:20;;;;;;;3.47;3.17;;;20.20;1.00;;;;;;5117188;28;20927;-67
2021/06/22 10:43:48;;;;;;;4.87;4.20;;;20.20;99.90;;;;;;5117628;28;20456;-67
2021/06/22 10:46:16;;;;;;;5.80;3.60;;;20.30;99.90;;;;;;5116834;28;20456;-67
2021/06/22 10:48:45;;;;;;;4.43;4.03;;;20.40;99.90;;;;;;5116757;28;20915;-67
2021/06/22 10:51:42;;;;;;;5.80;3.43;;;20.40;99.90;;;;;;5116902;28;20959;-67
2021/06/22 10:54:13;;;;;;;5.70;3.43;;;20.40;1.00;;;;;;5082501;28;20448;-67
2021/06/22 10:56:43;;;;;;;3.93;3.57;;;20.30;1.00;;;;;;5116849;28;20510;-68
2021/06/22 10:59:28;;;;;;;4.80;3.57;;;20.30;1.00;;;;;;5117041;28;20784;-68
2021/06/22 11:02:05;;;;;;;6.30;5.73;;;20.30;25.30;;;;;;5116734;28;20436;-67
2021/06/22 11:04:32;;;;;;;4.80;4.30;;;20.40;1.00;;;;;;5116769;28;20440;-68
2021/06/22 11:07:17;;;;;;;8.17;3.80;;;20.50;1.00;;;;;;5116580;28;20927;-67
2021/06/22 11:10:11;;;;;;;4.87;4.37;;;20.50;1.00;;;;;;5117267;28;20795;-67
2021/06/22 11:12:57;;;;;;;4.50;3.77;;;20.60;99.90;;;;;;5117034;28;20464;-68
2021/06/22 11:15:45;;;;;;;4.50;3.57;;;20.60;1.00;;;;;;5116357;28;20974;-68
2021/06/22 11:18:16;;;;;;;3.60;3.30;;;20.50;26.70;;;;;;5116735;27;20464;-68
2021/06/22 11:20:43;;;;;;;5.13;3.63;;;20.50;99.90;;;;;;5116659;28;20743;-68
2021/06/22 11:23:12;;;;;;;3.70;3.40;;;20.40;1.00;;;;;;5116752;28;20445;-67
2021/06/22 11:26:01;;;;;;;4.00;3.60;;;20.40;13.60;;;;;;5116513;28;20459;-68
2021/06/22 11:28:50;;;;;;;4.50;3.50;;;20.30;1.00;;;;;;5117042;28;20464;-68
2021/06/22 11:31:34;;;;;;;4.10;3.27;;;20.30;1.00;;;;;;5115815;28;20460;-68
2021/06/22 11:34:05;;;;;;;7.23;4.07;;;20.20;1.00;;;;;;5117613;28;20440;-68
2021/06/22 11:36:35;;;;;;;5.17;4.00;;;20.20;1.00;;;;;;5118500;28;20479;-68
2021/06/22 11:39:22;;;;;;;3.80;3.40;;;20.10;1.00;;;;;;5117814;28;20491;-69
2021/06/22 11:42:23;;;;;;;3.30;3.00;;;20.10;1.00;;;;;;5116243;28;20436;-68
2021/06/22 11:45:18;;;;;;;4.20;3.50;;;20.20;1.00;;;;;;5054157;28;20542;-68
2021/06/22 11:48:04;;;;;;;5.67;3.63;;;20.30;1.00;;;;;;5054619;28;20487;-68
2021/06/22 11:50:52;;;;;;;5.43;3.37;;;20.50;1.00;;;;;;5102142;28;20452;-67
2021/06/22 11:53:19;;;;;;;5.90;3.20;;;20.60;1.00;;;;;;5116465;28;20459;-67
2021/06/22 11:55:52;;;;;;;3.73;3.43;;;20.60;1.00;;;;;;5116385;28;20467;-67
2021/06/22 11:58:24;;;;;;;6.97;4.40;;;20.80;1.00;;;;;;5115584;28;20978;-67
2021/06/22 12:00:53;;;;;;;4.33;3.20;;;20.90;99.90;;;;;;5115260;28;20446;-66
2021/06/22 12:03:30;;;;;;;9.40;4.80;;;20.90;1.00;;;;;;5114917;28;20463;-67
2021/06/22 12:06:09;;;;;;;6.00;4.50;;;21.00;99.90;;;;;;5115283;28;20440;-68
2021/06/22 12:08:38;;;;;;;9.37;3.70;;;21.20;1.00;;;;;;5115248;28;20750;-68
2021/06/22 12:11:05;;;;;;;4.30;3.03;;;21.40;1.00;;;;;;5115077;28;20452;-68
2021/06/22 12:13:34;;;;;;;4.97;3.60;;;21.50;1.00;;;;;;5115949;28;20462;-67
2021/06/22 12:16:19;;;;;;;3.53;3.23;;;21.60;1.00;;;;;;5115934;28;20460;-66
2021/06/22 12:18:47;;;;;;;3.87;3.47;;;21.70;1.00;;;;;;5114614;28;20476;-66
2021/06/22 12:21:13;;;;;;;5.97;3.37;;;21.60;1.00;;;;;;5115210;28;20491;-67
2021/06/22 12:23:41;;;;;;;3.40;3.10;;;21.60;1.00;;;;;;5118398;28;20520;-66
2021/06/22 12:26:09;;;;;;;3.57;3.07;;;21.80;1.00;;;;;;5118176;28;20452;-67
2021/06/22 12:28:36;;;;;;;4.67;2.53;;;21.90;1.00;;;;;;5117870;28;20463;-66
2021/06/22 12:31:05;;;;;;;5.03;3.10;;;22.10;99.90;;;;;;5118400;28;20557;-66
2021/06/22 12:33:39;;;;;;;3.87;3.30;;;22.20;27.90;;;;;;5118288;28;20456;-67
2021/06/22 12:36:08;;;;;;;4.10;3.17;;;22.20;80.70;;;;;;5118495;28;20440;-67
2021/06/22 12:38:38;;;;;;;4.90;3.60;;;22.20;99.90;;;;;;5118907;28;20624;-67
2021/06/22 12:41:06;;;;;;;4.90;3.27;;;22.10;55.70;;;;;;5119222;28;20871;-68
2021/06/22 12:43:48;;;;;;;4.57;3.23;;;22.10;99.90;;;;;;5118696;28;20787;-68
2021/06/22 12:46:17;;;;;;;6.87;3.53;;;22.10;99.90;;;;;;5118184;28;20847;-67
2021/06/22 12:48:47;;;;;;;4.97;3.50;;;22.10;99.90;;;;;;5118514;28;20437;-67
2021/06/22 12:51:16;;;;;;;3.93;3.40;;;22.30;99.90;;;;;;5118319;28;20932;-68
2021/06/22 12:53:46;;;;;;;4.47;3.07;;;22.40;43.00;;;;;;5118122;28;20448;-68